createdAt,value
2023-03-26T00:00:56.755Z,7.60
2023-03-26T00:03:26.045Z,8.97
2023-03-26T00:06:04.063Z,7.80
2023-03-26T00:08:32.466Z,9.87
2023-03-26T00:11:02.321Z,7.90
2023-03-26T00:13:30.773Z,7.57
2023-03-26T00:15:59.168Z,8.30
2023-03-26T00:18:30.765Z,8.30
2023-03-26T00:20:59.359Z,6.83
2023-03-26T00:23:28.335Z,7.40
2023-03-26T00:25:57.182Z,7.57
2023-03-26T00:28:27.417Z,8.50
2023-03-26T00:31:00.175Z,6.87
2023-03-26T00:33:28.743Z,8.03
2023-03-26T00:35:59.117Z,9.43
2023-03-26T00:38:28.527Z,7.47
2023-03-26T00:40:59.286Z,7.40
2023-03-26T00:43:32.858Z,8.60
2023-03-26T00:46:02.274Z,7.93
2023-03-26T00:48:44.057Z,8.43
2023-03-26T00:51:15.559Z,7.47
2023-03-26T00:53:44.484Z,7.53
2023-03-26T00:56:13.210Z,9.00
2023-03-26T00:58:43.054Z,7.23
2023-03-26T01:01:13.773Z,8.37
2023-03-26T01:03:53.191Z,8.27
2023-03-26T01:06:32.863Z,9.63
2023-03-26T01:09:04.366Z,7.77
2023-03-26T01:11:33.727Z,7.57
2023-03-26T01:14:07.570Z,6.47
2023-03-26T01:16:38.230Z,7.50
2023-03-26T01:19:10.302Z,9.37
2023-03-26T01:21:39.765Z,9.10
2023-03-26T01:24:10.454Z,7.57
2023-03-26T01:27:02.675Z,6.97
2023-03-26T01:29:33.467Z,7.77
2023-03-26T01:32:09.560Z,9.17
2023-03-26T01:34:47.002Z,8.03
2023-03-26T01:37:20.947Z,8.57
2023-03-26T01:39:53.351Z,9.17
2023-03-26T01:42:24.449Z,8.50
2023-03-26T01:44:56.760Z,8.43
2023-03-26T01:47:25.318Z,7.40
2023-03-26T01:49:53.687Z,8.67
2023-03-26T01:52:25.227Z,9.60
2023-03-26T01:54:56.132Z,7.80
2023-03-26T01:57:29.874Z,8.00
2023-03-26T02:00:12.816Z,8.23
2023-03-26T02:02:47.469Z,8.03
2023-03-26T02:05:19.137Z,7.53
2023-03-26T02:07:51.155Z,8.37
2023-03-26T02:10:23.371Z,7.37
2023-03-26T02:12:52.214Z,8.00
2023-03-26T02:15:20.745Z,7.13
2023-03-26T02:17:49.629Z,7.77
2023-03-26T02:20:19.832Z,7.67
2023-03-26T02:22:48.802Z,7.37
2023-03-26T02:25:18.862Z,7.77
2023-03-26T02:27:50.772Z,8.03
2023-03-26T02:30:20.651Z,7.93
2023-03-26T02:32:52.443Z,8.03
2023-03-26T02:35:21.087Z,7.97
2023-03-26T02:37:50.987Z,7.30
2023-03-26T02:40:21.277Z,8.17
2023-03-26T02:42:51.196Z,7.03
2023-03-26T02:45:19.608Z,7.63
2023-03-26T02:47:48.054Z,6.40
2023-03-26T02:50:16.638Z,7.10
2023-03-26T02:52:45.415Z,6.97
2023-03-26T02:55:13.825Z,6.53
2023-03-26T02:57:42.448Z,8.30
2023-03-26T03:00:17.377Z,6.77
2023-03-26T03:02:47.942Z,8.07
2023-03-26T03:05:18.136Z,6.37
2023-03-26T03:07:46.719Z,6.77
2023-03-26T03:10:15.667Z,6.90
2023-03-26T03:12:44.214Z,7.03
2023-03-26T03:15:14.649Z,6.13
2023-03-26T03:17:43.102Z,7.13
2023-03-26T03:20:12.365Z,5.93
2023-03-26T03:22:40.970Z,6.70
2023-03-26T03:25:14.412Z,6.83
2023-03-26T03:27:43.004Z,6.73
2023-03-26T03:30:12.713Z,7.00
2023-03-26T03:32:42.755Z,9.00
2023-03-26T03:35:11.420Z,6.23
2023-03-26T03:37:39.805Z,6.97
2023-03-26T03:40:11.095Z,6.87
2023-03-26T03:42:39.700Z,6.33
2023-03-26T03:45:08.658Z,7.13
2023-03-26T03:47:37.093Z,8.03
2023-03-26T03:50:07.395Z,7.43
2023-03-26T03:52:35.814Z,6.10
2023-03-26T03:55:04.387Z,5.30
2023-03-26T03:57:33.553Z,5.80
2023-03-26T04:00:02.528Z,5.90
2023-03-26T04:02:35.065Z,6.03
2023-03-26T04:05:04.085Z,5.40
2023-03-26T04:07:33.906Z,5.77
2023-03-26T04:10:03.532Z,8.07
2023-03-26T04:12:32.431Z,6.23
2023-03-26T04:15:00.910Z,6.73
2023-03-26T04:17:30.627Z,5.87
2023-03-26T04:20:07.173Z,5.37
2023-03-26T04:22:37.234Z,6.60
2023-03-26T04:25:05.879Z,5.70
2023-03-26T04:27:35.477Z,4.60
2023-03-26T04:30:04.296Z,5.80
2023-03-26T04:32:34.320Z,5.40
2023-03-26T04:35:04.087Z,5.07
2023-03-26T04:37:34.612Z,4.77
2023-03-26T04:40:10.473Z,5.07
2023-03-26T04:42:41.709Z,6.80
2023-03-26T04:45:11.323Z,6.23
2023-03-26T04:47:39.853Z,5.30
2023-03-26T04:50:09.366Z,6.23
2023-03-26T04:52:37.891Z,5.27
2023-03-26T04:55:09.449Z,5.00
2023-03-26T04:57:39.314Z,5.20
2023-03-26T05:00:15.087Z,6.40
2023-03-26T05:02:43.683Z,8.23
2023-03-26T05:05:12.144Z,5.93
2023-03-26T05:07:42.194Z,5.37
2023-03-26T05:10:14.180Z,5.57
2023-03-26T05:12:42.651Z,6.03
2023-03-26T05:15:12.350Z,5.93
2023-03-26T05:17:41.729Z,4.97
2023-03-26T05:20:16.888Z,5.67
2023-03-26T05:22:45.347Z,4.83
2023-03-26T05:25:15.572Z,6.47
2023-03-26T05:27:44.126Z,6.47
2023-03-26T05:30:15.136Z,6.10
2023-03-26T05:32:43.602Z,5.67
2023-03-26T05:35:12.997Z,7.23
2023-03-26T05:37:41.448Z,5.17
2023-03-26T05:40:11.707Z,6.30
2023-03-26T05:42:41.970Z,6.60
2023-03-26T05:45:12.647Z,7.87
2023-03-26T05:47:41.101Z,7.20
2023-03-26T05:50:10.567Z,8.17
2023-03-26T05:52:39.218Z,7.47
2023-03-26T05:55:08.264Z,6.33
2023-03-26T05:57:36.747Z,6.37
2023-03-26T06:00:08.932Z,7.17
2023-03-26T06:02:37.419Z,6.00
2023-03-26T06:05:06.079Z,7.53
2023-03-26T06:07:35.193Z,6.90
2023-03-26T06:10:03.708Z,5.90
2023-03-26T06:12:32.100Z,6.10
2023-03-26T06:15:00.724Z,5.93
2023-03-26T06:17:30.500Z,5.23
2023-03-26T06:19:59.283Z,5.67
2023-03-26T06:22:27.722Z,5.50
2023-03-26T06:24:56.279Z,5.90
2023-03-26T06:27:24.841Z,5.50
2023-03-26T06:29:53.254Z,6.50
2023-03-26T06:32:21.687Z,6.07
2023-03-26T06:34:51.552Z,5.83
2023-03-26T06:37:20.277Z,6.07
2023-03-26T06:39:48.872Z,5.87
2023-03-26T06:42:17.264Z,6.80
2023-03-26T06:44:45.682Z,4.40
2023-03-26T06:47:14.080Z,5.47
2023-03-26T06:49:44.922Z,6.63
2023-03-26T06:52:15.207Z,6.00
2023-03-26T06:54:43.573Z,5.80
2023-03-26T06:57:12.018Z,7.27
2023-03-26T06:59:40.518Z,6.20
2023-03-26T07:02:09.177Z,6.10
2023-03-26T07:04:37.721Z,5.77
2023-03-26T07:07:06.209Z,6.30
2023-03-26T07:09:36.130Z,6.43
2023-03-26T07:12:04.516Z,5.93
2023-03-26T07:14:32.928Z,6.97
2023-03-26T07:17:01.410Z,6.60
2023-03-26T07:19:29.863Z,7.00
2023-03-26T07:21:58.503Z,7.37
2023-03-26T07:24:27.260Z,6.00
2023-03-26T07:27:01.293Z,6.50
2023-03-26T07:29:34.244Z,5.30
2023-03-26T07:32:05.700Z,8.03
2023-03-26T07:34:39.996Z,7.70
2023-03-26T07:37:12.622Z,8.53
2023-03-26T07:39:46.024Z,8.30
2023-03-26T07:42:21.057Z,8.67
2023-03-26T07:44:52.505Z,8.73
2023-03-26T07:47:26.068Z,7.90
2023-03-26T07:49:55.726Z,6.60
2023-03-26T07:52:24.437Z,6.20
2023-03-26T07:54:53.110Z,6.57
2023-03-26T07:57:27.504Z,7.23
2023-03-26T07:59:59.387Z,6.73
2023-03-26T08:02:37.960Z,8.07
2023-03-26T08:05:19.835Z,7.10
2023-03-26T08:07:55.748Z,9.27
2023-03-26T08:10:25.758Z,6.63
2023-03-26T08:12:59.454Z,7.67
2023-03-26T08:15:30.749Z,6.73
2023-03-26T08:18:01.734Z,8.87
2023-03-26T08:20:34.373Z,8.00
2023-03-26T08:23:05.185Z,8.43
2023-03-26T08:25:37.396Z,7.80
2023-03-26T08:28:12.561Z,7.73
2023-03-26T08:30:41.213Z,7.73
2023-03-26T08:33:14.026Z,8.10
2023-03-26T08:35:42.866Z,8.03
2023-03-26T08:38:11.826Z,5.63
2023-03-26T08:40:58.711Z,7.57
2023-03-26T08:43:38.735Z,10.53
2023-03-26T08:46:13.308Z,7.00
2023-03-26T08:48:59.564Z,6.03
2023-03-26T08:51:46.480Z,7.90
2023-03-26T08:54:33.451Z,7.17
2023-03-26T08:57:10.924Z,7.33
2023-03-26T09:00:05.908Z,7.30
2023-03-26T09:02:55.500Z,7.60
2023-03-26T09:05:41.757Z,7.93
2023-03-26T09:08:26.604Z,7.07
2023-03-26T09:11:06.411Z,7.10
2023-03-26T09:13:52.616Z,7.47
2023-03-26T09:16:36.053Z,7.73
2023-03-26T09:19:16.159Z,6.90
2023-03-26T09:21:59.968Z,8.67
2023-03-26T09:24:48.162Z,7.77
2023-03-26T09:27:20.943Z,6.70
2023-03-26T09:29:58.653Z,7.73
2023-03-26T09:32:47.783Z,7.57
2023-03-26T09:35:24.211Z,8.60
2023-03-26T09:37:58.865Z,5.10
2023-03-26T09:40:31.669Z,7.17
2023-03-26T09:43:08.517Z,8.53
2023-03-26T09:45:48.368Z,6.60
2023-03-26T09:48:31.684Z,5.77
2023-03-26T09:51:15.069Z,7.77
2023-03-26T09:54:04.274Z,6.47
2023-03-26T09:56:39.579Z,7.67
2023-03-26T09:59:26.178Z,7.37
2023-03-26T10:01:59.618Z,7.03
2023-03-26T10:04:40.322Z,8.00
2023-03-26T10:07:14.444Z,8.57
2023-03-26T10:09:51.126Z,11.33
2023-03-26T10:12:26.301Z,5.33
2023-03-26T10:14:59.995Z,7.30
2023-03-26T10:17:36.397Z,8.93
2023-03-26T10:20:17.721Z,13.60
2023-03-26T10:22:54.702Z,5.20
2023-03-26T10:25:37.930Z,7.83
2023-03-26T10:28:12.094Z,7.50
2023-03-26T10:30:47.144Z,6.50
2023-03-26T10:33:27.379Z,6.87
2023-03-26T10:36:02.495Z,8.10
2023-03-26T10:38:39.680Z,5.50
2023-03-26T10:41:12.317Z,9.73
2023-03-26T10:44:07.525Z,7.17
2023-03-26T10:46:51.545Z,8.60
2023-03-26T10:49:30.783Z,9.60
2023-03-26T10:52:00.381Z,6.60
2023-03-26T10:54:36.530Z,5.80
2023-03-26T10:57:08.160Z,7.17
2023-03-26T10:59:36.597Z,7.03
2023-03-26T11:02:29.366Z,4.57
2023-03-26T11:05:05.136Z,12.13
2023-03-26T11:07:38.744Z,6.40
2023-03-26T11:10:10.821Z,6.87
2023-03-26T11:12:43.873Z,9.77
2023-03-26T11:15:22.577Z,6.97
2023-03-26T11:17:55.436Z,7.17
2023-03-26T11:20:26.273Z,9.80
2023-03-26T11:23:02.367Z,7.45
2023-03-26T11:25:45.741Z,5.97
2023-03-26T11:28:23.767Z,6.40
2023-03-26T11:30:55.851Z,8.80
2023-03-26T11:33:26.898Z,8.30
2023-03-26T11:36:03.631Z,8.93
2023-03-26T11:38:37.499Z,11.63
2023-03-26T11:41:13.202Z,14.40
2023-03-26T11:43:41.717Z,10.33
2023-03-26T11:46:13.579Z,10.57
2023-03-26T11:48:44.366Z,13.80
2023-03-26T11:51:16.462Z,13.27
2023-03-26T11:53:46.810Z,10.40
2023-03-26T11:56:21.476Z,10.07
2023-03-26T11:58:52.826Z,14.98
2023-03-26T12:01:29.931Z,14.47
2023-03-26T12:03:59.834Z,13.10
2023-03-26T12:06:29.099Z,12.95
2023-03-26T12:08:58.092Z,15.97
2023-03-26T12:11:32.191Z,12.90
2023-03-26T12:14:03.418Z,7.25
2023-03-26T12:16:32.337Z,13.57
2023-03-26T12:19:01.892Z,14.15
2023-03-26T12:21:30.534Z,11.77
2023-03-26T12:24:00.422Z,11.35
2023-03-26T12:26:36.835Z,11.40
2023-03-26T12:29:12.728Z,16.85
2023-03-26T12:31:47.904Z,11.73
2023-03-26T12:34:17.455Z,11.50
2023-03-26T12:36:50.791Z,22.73
2023-03-26T12:40:09.767Z,17.58
2023-03-26T12:44:47.002Z,18.75
2023-03-26T12:45:16.879Z,15.27
2023-03-26T12:48:00.765Z,14.53
2023-03-26T12:50:35.780Z,18.23
2023-03-26T12:53:17.967Z,18.85
2023-03-26T12:55:53.208Z,16.58
2023-03-26T12:58:39.609Z,11.48
2023-03-26T13:01:15.979Z,9.80
2023-03-26T13:03:57.240Z,13.77
2023-03-26T13:06:31.578Z,16.38
2023-03-26T13:09:37.631Z,13.55
2023-03-26T13:12:10.936Z,8.88
2023-03-26T13:14:50.734Z,9.13
2023-03-26T13:17:23.926Z,10.10
2023-03-26T13:19:56.415Z,6.28
2023-03-26T13:22:27.431Z,7.57
2023-03-26T13:24:58.728Z,7.38
2023-03-26T13:27:38.915Z,7.80
2023-03-26T13:30:14.547Z,8.73
2023-03-26T13:32:49.695Z,13.48
2023-03-26T13:35:21.630Z,11.70
2023-03-26T13:37:53.146Z,6.72
2023-03-26T13:40:25.503Z,7.63
2023-03-26T13:43:02.962Z,5.35
2023-03-26T13:45:41.592Z,5.85
2023-03-26T13:48:14.817Z,5.00
2023-03-26T13:50:43.948Z,5.85
2023-03-26T13:53:15.430Z,6.28
2023-03-26T13:55:45.549Z,7.00
2023-03-26T13:58:16.077Z,6.25
2023-03-26T14:00:54.418Z,6.82
2023-03-26T14:03:30.148Z,5.32
2023-03-26T14:06:01.969Z,5.40
2023-03-26T14:08:35.291Z,4.90
2023-03-26T14:11:07.959Z,4.55
2023-03-26T14:13:40.458Z,6.10
2023-03-26T14:16:13.576Z,5.88
2023-03-26T14:18:47.438Z,9.63
2023-03-26T14:21:32.350Z,8.52
2023-03-26T14:24:07.702Z,7.70
2023-03-26T14:26:43.436Z,5.38
2023-03-26T14:29:23.839Z,8.02
2023-03-26T14:31:59.686Z,4.85
2023-03-26T14:34:35.563Z,8.18
2023-03-26T14:37:27.978Z,5.57
2023-03-26T14:40:14.953Z,5.35
2023-03-26T14:42:44.610Z,6.60
2023-03-26T14:45:35.479Z,7.25
2023-03-26T14:48:14.093Z,5.85
2023-03-26T14:50:54.468Z,5.90
2023-03-26T14:53:28.000Z,5.75
2023-03-26T14:56:13.190Z,5.57
2023-03-26T14:59:00.377Z,5.70
2023-03-26T15:01:29.621Z,5.35
2023-03-26T15:04:18.721Z,6.80
2023-03-26T15:07:04.850Z,4.10
2023-03-26T15:09:51.880Z,5.65
2023-03-26T15:12:25.629Z,4.63
2023-03-26T15:15:13.938Z,6.40
2023-03-26T15:18:00.341Z,5.85
2023-03-26T15:20:49.613Z,6.10
2023-03-26T15:23:51.020Z,6.05
2023-03-26T15:26:47.448Z,5.55
2023-03-26T15:29:27.073Z,5.82
2023-03-26T15:32:22.359Z,5.82
2023-03-26T15:35:12.426Z,5.03
2023-03-26T15:38:01.788Z,6.45
2023-03-26T15:40:45.108Z,7.95
2023-03-26T15:43:15.832Z,5.72
2023-03-26T15:45:47.531Z,8.23
2023-03-26T15:48:37.483Z,7.22
2023-03-26T15:51:19.141Z,8.45
2023-03-26T15:53:51.880Z,7.35
2023-03-26T15:56:26.671Z,9.80
2023-03-26T15:58:59.437Z,7.70
2023-03-26T16:01:34.041Z,9.98
2023-03-26T16:04:09.153Z,11.60
2023-03-26T16:06:41.585Z,11.07
2023-03-26T16:09:22.052Z,10.77
2023-03-26T16:11:54.818Z,12.55
2023-03-26T16:14:25.913Z,10.15
2023-03-26T16:16:58.619Z,11.65
2023-03-26T16:19:51.984Z,8.15
2023-03-26T16:22:43.078Z,12.25
2023-03-26T16:25:27.237Z,10.80
2023-03-26T16:28:18.169Z,14.85
2023-03-26T16:31:22.850Z,10.57
2023-03-26T16:33:59.949Z,8.32
2023-03-26T16:36:34.507Z,6.78
2023-03-26T16:39:18.741Z,14.30
2023-03-26T16:41:56.457Z,6.47
2023-03-26T16:44:40.190Z,11.65
2023-03-26T16:47:14.476Z,6.47
2023-03-26T16:50:08.590Z,15.88
2023-03-26T16:52:43.958Z,11.63
2023-03-26T16:55:19.721Z,16.35
2023-03-26T16:57:51.953Z,12.63
2023-03-26T17:00:27.466Z,15.95
2023-03-26T17:03:03.799Z,17.30
2023-03-26T17:05:35.863Z,16.85
2023-03-26T17:08:08.387Z,16.50
2023-03-26T17:10:38.359Z,19.85
2023-03-26T17:13:09.604Z,14.97
2023-03-26T17:15:43.509Z,21.15
2023-03-26T17:18:34.659Z,23.47
2023-03-26T17:21:05.576Z,24.83
2023-03-26T17:23:42.335Z,21.07
2023-03-26T17:26:13.576Z,20.37
2023-03-26T17:28:50.498Z,16.20
2023-03-26T17:31:23.642Z,22.57
2023-03-26T17:33:53.764Z,17.47
2023-03-26T17:36:25.224Z,18.37
2023-03-26T17:39:00.861Z,24.90
2023-03-26T17:41:47.832Z,19.60
2023-03-26T17:44:30.595Z,24.37
2023-03-26T17:46:59.624Z,19.63
2023-03-26T17:49:33.403Z,18.30
2023-03-26T17:52:03.633Z,18.73
2023-03-26T17:54:34.538Z,15.47
2023-03-26T17:57:05.281Z,13.83
2023-03-26T17:59:34.109Z,16.07
2023-03-26T18:02:06.933Z,11.37
2023-03-26T18:04:38.324Z,11.30
2023-03-26T18:07:25.043Z,14.63
2023-03-26T18:09:59.274Z,12.20
2023-03-26T18:12:36.822Z,11.73
2023-03-26T18:15:20.050Z,11.13
2023-03-26T18:17:48.971Z,10.87
2023-03-26T18:20:23.543Z,6.47
2023-03-26T18:22:53.035Z,11.00
2023-03-26T18:25:24.008Z,12.07
2023-03-26T18:27:52.786Z,8.63
2023-03-26T18:30:22.672Z,13.10
2023-03-26T18:33:00.142Z,13.77
2023-03-26T18:35:42.220Z,10.53
2023-03-26T18:38:14.451Z,10.30
2023-03-26T18:40:44.226Z,10.33
2023-03-26T18:43:28.566Z,10.87
2023-03-26T18:46:02.887Z,10.07
2023-03-26T18:48:31.304Z,7.37
2023-03-26T18:51:05.891Z,12.07
2023-03-26T18:53:39.602Z,8.27
2023-03-26T18:56:20.326Z,8.23
2023-03-26T18:58:52.220Z,8.43
2023-03-26T19:01:25.871Z,6.40
2023-03-26T19:03:55.306Z,5.70
2023-03-26T19:06:26.060Z,8.00
2023-03-26T19:08:54.565Z,6.83
2023-03-26T19:11:23.037Z,4.97
2023-03-26T19:14:03.394Z,7.63
2023-03-26T19:16:36.532Z,5.43
2023-03-26T19:19:07.087Z,11.67
2023-03-26T19:21:37.959Z,9.13
2023-03-26T19:24:06.948Z,5.43
2023-03-26T19:26:36.679Z,6.77
2023-03-26T19:29:05.907Z,6.07
2023-03-26T19:31:35.253Z,7.03
2023-03-26T19:34:04.977Z,8.53
2023-03-26T19:36:34.626Z,9.00
2023-03-26T19:39:12.830Z,9.33
2023-03-26T19:41:42.705Z,7.40
2023-03-26T19:44:21.946Z,8.37
2023-03-26T19:46:52.916Z,8.00
2023-03-26T19:49:30.026Z,6.53
2023-03-26T19:52:05.224Z,8.10
2023-03-26T19:57:36.554Z,9.47
2023-03-26T20:00:13.324Z,11.30
2023-03-26T20:02:42.390Z,11.73
2023-03-26T20:05:15.798Z,10.60
2023-03-26T20:07:44.811Z,12.60
2023-03-26T20:10:14.783Z,11.43
2023-03-26T20:12:43.216Z,10.07
2023-03-26T20:15:19.079Z,9.20
2023-03-26T20:17:50.172Z,8.87
2023-03-26T20:20:19.443Z,11.33
2023-03-26T20:22:48.202Z,11.00
2023-03-26T20:25:20.476Z,8.43
2023-03-26T20:27:48.938Z,8.50
2023-03-26T20:30:27.534Z,10.40
2023-03-26T20:33:11.983Z,9.63
2023-03-26T20:35:41.695Z,11.00
2023-03-26T20:38:10.469Z,10.07
2023-03-26T20:40:40.967Z,10.33
2023-03-26T20:43:12.884Z,8.47
2023-03-26T20:45:41.621Z,9.07
2023-03-26T20:48:11.099Z,6.63
2023-03-26T20:50:50.278Z,8.63
2023-03-26T20:53:20.370Z,10.33
2023-03-26T20:55:51.617Z,6.30
2023-03-26T20:58:31.068Z,7.03
2023-03-26T21:01:02.101Z,8.13
2023-03-26T21:03:30.791Z,10.57
2023-03-26T21:06:01.315Z,9.40
2023-03-26T21:08:35.393Z,9.27
2023-03-26T21:11:06.499Z,8.33
2023-03-26T21:13:37.864Z,9.77
2023-03-26T21:16:08.138Z,8.33
2023-03-26T21:18:36.920Z,7.90
2023-03-26T21:21:20.197Z,7.33
2023-03-26T21:23:57.861Z,6.77
2023-03-26T21:26:31.550Z,7.80
2023-03-26T21:29:00.932Z,6.07
2023-03-26T21:31:30.989Z,6.03
2023-03-26T21:33:59.793Z,7.30
2023-03-26T21:36:28.499Z,7.73
2023-03-26T21:38:57.231Z,5.80
2023-03-26T21:41:35.885Z,6.20
2023-03-26T21:44:04.475Z,6.87
2023-03-26T21:46:33.196Z,6.70
2023-03-26T21:49:01.816Z,8.00
2023-03-26T21:51:30.447Z,10.03
2023-03-26T21:53:59.087Z,8.37
2023-03-26T21:56:36.160Z,7.40
2023-03-26T21:59:06.964Z,8.63
2023-03-26T22:01:38.638Z,7.87
2023-03-26T22:04:09.841Z,7.47
2023-03-26T22:06:42.925Z,7.07
2023-03-26T22:09:12.912Z,6.03
2023-03-26T22:11:43.552Z,7.33
2023-03-26T22:14:13.306Z,4.83
2023-03-26T22:16:42.063Z,3.67
2023-03-26T22:19:12.527Z,3.00
2023-03-26T22:21:41.156Z,2.60
2023-03-26T22:24:09.915Z,2.83
2023-03-26T22:26:38.687Z,2.30
2023-03-26T22:29:08.604Z,2.43
2023-03-26T22:31:39.830Z,2.07
2023-03-26T22:34:08.303Z,2.63
2023-03-26T22:36:39.789Z,1.90
2023-03-26T22:39:09.031Z,1.67
2023-03-26T22:41:38.858Z,1.60
2023-03-26T22:44:19.971Z,2.23
2023-03-26T22:46:51.467Z,2.10
2023-03-26T22:49:20.204Z,1.80
2023-03-26T22:51:50.171Z,1.30
2023-03-26T22:54:18.627Z,1.50
2023-03-26T22:56:47.065Z,1.97
2023-03-26T22:59:16.846Z,2.43
2023-03-26T23:01:45.948Z,1.47
2023-03-26T23:04:31.533Z,1.70
2023-03-26T23:07:00.825Z,1.40
2023-03-26T23:09:29.520Z,2.07
2023-03-26T23:11:58.071Z,1.47
2023-03-26T23:14:28.687Z,1.87
2023-03-26T23:16:57.210Z,1.60
2023-03-26T23:19:25.784Z,1.70
2023-03-26T23:21:54.255Z,2.10
2023-03-26T23:24:22.623Z,1.70
2023-03-26T23:26:51.453Z,1.70
2023-03-26T23:29:19.954Z,1.70
2023-03-26T23:31:49.785Z,1.50
2023-03-26T23:34:18.620Z,2.77
2023-03-26T23:36:47.076Z,1.60
2023-03-26T23:39:15.946Z,1.90
2023-03-26T23:41:44.503Z,1.60
2023-03-26T23:44:14.609Z,1.60
2023-03-26T23:46:44.217Z,1.57
2023-03-26T23:49:14.907Z,1.20
2023-03-26T23:51:43.329Z,1.20
2023-03-26T23:54:11.720Z,2.13
2023-03-26T23:56:40.502Z,1.30
2023-03-26T23:59:08.952Z,1.20
